Hillside, New York
Current Conditions -  °F | °C
As of 10:32 PM on Monday 26 Jan 2015 (Local Time) from KLGA Reporting Station
Light Snow Light Snow  
Wind Chill: 14°   Ceiling: 3100
Heat Index: 27°   Visibility: 1.5mi
Dew Point: 21°   Wind: 17mph
Humidity: 80%   Direction: 10°N
Pressure: 29.73"   Gusts: 28mph
Location:  40.8683°N, 73.8469°W
Report Text: KLGA 270332Z 01015G24KT 1 1/2SM -SN BR SCT012 OVC031 M03/M06 A2973 RMK AO2 PK WND 02027/0311 P0001 $
Loading
Personal Weather Stations






























Interactive Weather Map New forecast layout! Learn more

10-Day Weather Forecast

Advertisements
Track Severe Weather on mobile